Time;durP1;ratioP1;P1;durP2;ratioP2;P2;SDS_P1;SDS_P2;PMS_P1;PMS_P2;Temp;Humidity;BMP_temperature;BMP_pressure;BME280_temperature;BME280_humidity;BME280_pressure;Samples;Min_cycle;Max_cycle;Signal;HPM_P1;HPM_P2
2021/01/22 08:57:30;;;;;;;2.03;0.70;;;6.60;99.90;;;;;;5029536;28;20227;-71
2021/01/22 08:59:57;;;;;;;1.37;0.80;;;6.60;99.90;;;;;;5030857;28;20212;-73
2021/01/22 09:02:38;;;;;;;2.20;0.73;;;6.70;99.90;;;;;;5030172;28;20229;-72
2021/01/22 09:05:07;;;;;;;1.10;0.70;;;6.70;99.90;;;;;;5012817;28;20213;-75
2021/01/22 09:07:34;;;;;;;3.17;0.90;;;6.80;99.90;;;;;;5012794;28;20217;-73
2021/01/22 09:10:00;;;;;;;4.10;0.70;;;6.70;99.90;;;;;;5021485;28;20210;-74
2021/01/22 09:12:27;;;;;;;2.23;1.17;;;6.70;99.90;;;;;;5005555;28;20234;-75
2021/01/22 09:15:00;;;;;;;2.77;0.67;;;6.80;99.90;;;;;;5009494;28;20209;-78
2021/01/22 09:17:37;;;;;;;5.37;1.00;;;6.80;99.90;;;;;;5013380;28;20296;-83
2021/01/22 09:20:08;;;;;;;5.03;0.77;;;6.80;99.90;;;;;;5012300;28;20240;-77
2021/01/22 09:22:35;;;;;;;2.60;0.93;;;6.70;99.90;;;;;;5011816;28;20244;-77
2021/01/22 09:25:03;;;;;;;3.97;0.97;;;6.70;99.90;;;;;;5013379;28;20225;-74
2021/01/22 09:27:30;;;;;;;1.43;0.70;;;6.70;99.90;;;;;;5010054;28;20264;-83
2021/01/22 09:29:57;;;;;;;1.10;0.80;;;6.80;99.90;;;;;;5006497;28;20259;-76
2021/01/22 09:32:23;;;;;;;3.80;0.80;;;7.00;99.90;;;;;;5020237;28;20202;-78
2021/01/22 09:34:50;;;;;;;5.13;0.67;;;7.20;99.90;;;;;;4997461;28;20565;-75
2021/01/22 09:37:16;;;;;;;0.90;0.60;;;7.20;99.90;;;;;;4992299;28;20218;-74
2021/01/22 09:39:42;;;;;;;1.87;0.87;;;7.20;99.90;;;;;;4993261;28;20558;-73
2021/01/22 09:42:09;;;;;;;1.50;1.00;;;7.20;99.90;;;;;;5009394;28;20209;-73
2021/01/22 09:44:35;;;;;;;3.50;1.07;;;7.40;99.90;;;;;;5004325;28;20238;-77
2021/01/22 09:47:03;;;;;;;1.63;0.73;;;7.30;99.90;;;;;;4992617;28;20207;-73
2021/01/22 09:49:29;;;;;;;3.63;1.50;;;7.20;99.90;;;;;;4991427;28;20277;-70
2021/01/22 09:51:55;;;;;;;2.37;1.03;;;7.30;99.90;;;;;;4990486;28;20215;-71
2021/01/22 09:54:21;;;;;;;2.37;0.80;;;7.40;99.90;;;;;;5004069;28;20229;-74
2021/01/22 09:56:47;;;;;;;4.50;0.93;;;7.60;99.90;;;;;;5012157;28;20565;-73
2021/01/22 09:59:14;;;;;;;2.73;0.70;;;7.50;99.90;;;;;;5011704;28;20205;-74
2021/01/22 10:01:40;;;;;;;1.97;0.93;;;7.50;99.90;;;;;;5011984;28;20892;-73
2021/01/22 10:04:07;;;;;;;2.43;0.67;;;7.40;99.90;;;;;;5012243;28;20241;-69
2021/01/22 10:06:34;;;;;;;1.57;0.80;;;7.40;99.90;;;;;;5012244;28;20221;-74
2021/01/22 10:09:00;;;;;;;3.87;0.73;;;7.30;99.90;;;;;;5012377;28;20263;-70
2021/01/22 10:11:26;;;;;;;2.73;0.93;;;7.30;99.90;;;;;;5012301;28;20669;-74
2021/01/22 10:13:56;;;;;;;2.80;0.87;;;7.50;99.90;;;;;;5015972;28;20275;-72
2021/01/22 10:16:24;;;;;;;2.93;0.90;;;7.50;99.90;;;;;;5022320;28;20263;-74
2021/01/22 10:18:51;;;;;;;3.30;0.73;;;7.40;99.90;;;;;;5020031;28;20210;-73
2021/01/22 10:21:21;;;;;;;2.27;0.70;;;7.40;99.90;;;;;;5027641;28;20675;-71
2021/01/22 10:23:49;;;;;;;4.27;1.10;;;7.50;99.90;;;;;;5021267;28;20244;-72
2021/01/22 10:26:15;;;;;;;2.93;0.80;;;7.60;99.90;;;;;;5014388;28;20676;-71
2021/01/22 10:28:42;;;;;;;2.57;0.60;;;7.60;99.90;;;;;;5022779;28;20276;-74
2021/01/22 10:31:08;;;;;;;1.90;0.83;;;7.50;99.90;;;;;;5023107;28;20258;-70
2021/01/22 10:33:34;;;;;;;1.37;0.70;;;7.40;99.90;;;;;;5021731;28;20326;-72
2021/01/22 10:36:01;;;;;;;1.90;0.90;;;7.40;99.90;;;;;;5022715;28;20668;-70
2021/01/22 10:38:28;;;;;;;3.47;0.83;;;7.40;99.90;;;;;;5021482;28;20220;-72
2021/01/22 10:40:54;;;;;;;4.80;0.67;;;7.40;99.90;;;;;;5019746;28;20259;-71
2021/01/22 10:43:21;;;;;;;1.70;0.73;;;7.50;99.90;;;;;;5019663;28;20569;-71
2021/01/22 10:45:47;;;;;;;1.77;0.53;;;7.50;99.90;;;;;;5022759;28;20698;-79
2021/01/22 10:48:15;;;;;;;3.10;0.70;;;7.70;99.90;;;;;;5022953;28;20208;-73
2021/01/22 10:50:41;;;;;;;0.90;0.77;;;7.70;99.90;;;;;;5019293;28;20212;-71
2021/01/22 10:53:08;;;;;;;2.13;0.80;;;7.60;99.90;;;;;;5017941;28;20236;-72
2021/01/22 10:55:35;;;;;;;3.00;0.77;;;7.70;99.90;;;;;;5022212;28;20229;-73
2021/01/22 10:58:01;;;;;;;2.73;1.40;;;7.70;99.90;;;;;;5022263;28;20208;-72
2021/01/22 11:00:28;;;;;;;6.57;0.63;;;7.80;99.90;;;;;;5022904;28;20201;-73
2021/01/22 11:02:54;;;;;;;1.83;0.73;;;7.80;99.90;;;;;;5017491;28;20580;-73
2021/01/22 11:05:20;;;;;;;3.43;0.83;;;7.90;99.90;;;;;;5016133;28;20212;-70
2021/01/22 11:07:46;;;;;;;1.43;0.73;;;7.80;99.90;;;;;;5024328;28;20213;-69
2021/01/22 11:10:13;;;;;;;1.47;0.60;;;7.80;99.90;;;;;;5032934;28;20209;-70
2021/01/22 11:12:41;;;;;;;2.00;0.90;;;8.00;99.90;;;;;;5032627;28;20725;-68
2021/01/22 11:15:08;;;;;;;1.60;0.70;;;8.00;99.90;;;;;;5034637;28;20662;-69
2021/01/22 11:17:34;;;;;;;3.87;0.77;;;8.00;99.90;;;;;;5037040;28;20205;-73
2021/01/22 11:20:02;;;;;;;0.87;0.70;;;8.10;99.90;;;;;;5037015;28;20255;-69
2021/01/22 11:22:28;;;;;;;1.37;0.70;;;8.00;99.90;;;;;;5036553;28;20583;-74
2021/01/22 11:24:55;;;;;;;2.20;1.00;;;7.90;99.90;;;;;;5036582;28;20255;-73
2021/01/22 11:27:21;;;;;;;3.93;1.33;;;8.00;99.90;;;;;;5036459;28;20205;-69
2021/01/22 11:29:48;;;;;;;1.90;0.63;;;8.00;99.90;;;;;;5036883;28;20323;-74
2021/01/22 11:32:15;;;;;;;1.83;0.50;;;8.10;99.90;;;;;;5036448;28;20205;-72
2021/01/22 11:34:41;;;;;;;4.47;0.90;;;8.30;99.90;;;;;;5036378;28;20618;-74
2021/01/22 11:37:08;;;;;;;3.07;0.80;;;8.50;99.90;;;;;;5036462;28;20216;-69
2021/01/22 11:39:35;;;;;;;0.73;0.57;;;8.50;99.90;;;;;;5036316;28;20563;-70
2021/01/22 11:42:02;;;;;;;4.23;1.20;;;8.60;99.90;;;;;;5035891;28;20536;-70
2021/01/22 11:44:28;;;;;;;1.73;0.70;;;8.70;99.90;;;;;;5029646;28;20268;-73
2021/01/22 11:46:55;;;;;;;2.73;0.70;;;8.60;99.90;;;;;;5015907;28;20664;-69
2021/01/22 11:49:21;;;;;;;3.30;0.70;;;8.60;99.90;;;;;;5016206;28;20669;-73
2021/01/22 11:51:47;;;;;;;3.77;0.83;;;8.70;99.90;;;;;;5016193;28;20213;-69
2021/01/22 11:54:14;;;;;;;2.00;0.50;;;8.80;99.90;;;;;;5015926;28;20237;-69
2021/01/22 11:56:40;;;;;;;1.53;0.60;;;9.00;99.90;;;;;;5015567;28;20236;-74
2021/01/22 11:59:08;;;;;;;2.07;0.73;;;9.00;99.90;;;;;;5015757;28;20205;-74
2021/01/22 12:01:35;;;;;;;3.23;0.80;;;9.10;99.90;;;;;;5016238;28;20256;-74
2021/01/22 12:04:02;;;;;;;3.03;0.70;;;9.10;99.90;;;;;;5016024;28;20233;-73
2021/01/22 12:06:28;;;;;;;2.67;0.93;;;9.10;99.90;;;;;;5015755;28;20212;-69
2021/01/22 12:08:55;;;;;;;4.73;0.60;;;9.00;99.90;;;;;;5015618;28;20206;-73
2021/01/22 12:11:21;;;;;;;1.90;1.00;;;8.90;99.90;;;;;;5015481;28;20210;-74
2021/01/22 12:13:47;;;;;;;2.50;1.00;;;8.80;99.90;;;;;;5015279;28;20722;-70
2021/01/22 12:16:13;;;;;;;2.53;0.90;;;8.90;99.90;;;;;;5015679;28;20206;-69
2021/01/22 12:18:40;;;;;;;1.10;0.40;;;9.10;99.90;;;;;;5015587;28;20684;-69
2021/01/22 12:21:09;;;;;;;3.20;0.90;;;9.20;99.90;;;;;;5015582;28;20672;-70
2021/01/22 12:23:35;;;;;;;1.67;0.50;;;9.20;99.90;;;;;;5015205;28;20245;-71
2021/01/22 12:26:02;;;;;;;1.63;0.37;;;9.20;99.90;;;;;;5015500;28;20216;-74
2021/01/22 12:28:28;;;;;;;0.73;0.40;;;9.30;99.90;;;;;;5015261;28;20722;-69
2021/01/22 12:30:55;;;;;;;4.23;0.60;;;9.30;99.90;;;;;;5015418;28;20218;-73
2021/01/22 12:33:21;;;;;;;1.17;0.60;;;9.20;99.90;;;;;;5015269;28;20237;-74
2021/01/22 12:35:49;;;;;;;10.07;0.90;;;9.20;99.90;;;;;;5015108;28;20210;-69
2021/01/22 12:38:17;;;;;;;2.13;0.50;;;9.10;99.90;;;;;;5015374;28;20292;-73
2021/01/22 12:40:43;;;;;;;2.53;0.50;;;9.10;99.90;;;;;;5014967;28;20217;-69
2021/01/22 12:43:10;;;;;;;4.30;0.73;;;9.20;99.90;;;;;;5014919;28;20237;-69
2021/01/22 12:45:36;;;;;;;2.10;0.50;;;9.30;99.90;;;;;;5015174;28;20213;-69
2021/01/22 12:48:04;;;;;;;1.67;0.90;;;9.30;99.90;;;;;;5014533;28;20221;-69
2021/01/22 12:50:30;;;;;;;3.67;0.77;;;9.40;99.90;;;;;;4999167;28;20245;-72
2021/01/22 12:52:57;;;;;;;3.50;0.60;;;9.30;99.90;;;;;;4994898;28;20238;-73
2021/01/22 12:55:24;;;;;;;2.87;0.60;;;9.30;99.90;;;;;;5004247;28;20206;-71
2021/01/22 12:57:50;;;;;;;0.87;0.53;;;9.40;99.90;;;;;;5012582;28;20206;-74
2021/01/22 13:00:18;;;;;;;1.00;0.60;;;9.40;99.90;;;;;;5014231;28;20209;-73
2021/01/22 13:02:45;;;;;;;1.63;0.70;;;9.40;99.90;;;;;;5013931;28;20221;-74
2021/01/22 13:05:12;;;;;;;2.60;0.70;;;9.40;99.90;;;;;;5013124;28;20210;-74
2021/01/22 13:07:38;;;;;;;2.17;0.37;;;9.50;99.90;;;;;;5014649;28;20224;-70
2021/01/22 13:10:06;;;;;;;2.23;0.53;;;9.50;99.90;;;;;;5014125;28;20209;-70
2021/01/22 13:12:33;;;;;;;1.00;0.67;;;9.40;99.90;;;;;;5014314;28;20276;-73
2021/01/22 13:14:59;;;;;;;1.33;0.40;;;9.50;99.90;;;;;;5014513;28;20209;-69
2021/01/22 13:17:26;;;;;;;0.87;0.60;;;9.40;99.90;;;;;;5014366;28;20220;-73
2021/01/22 13:19:52;;;;;;;0.80;0.43;;;9.50;99.90;;;;;;5014207;28;20263;-69
2021/01/22 13:22:19;;;;;;;1.27;0.50;;;9.50;99.90;;;;;;5014474;28;20213;-73
2021/01/22 13:24:45;;;;;;;1.20;0.50;;;9.60;99.90;;;;;;5014391;28;20615;-72
2021/01/22 13:27:11;;;;;;;3.77;0.90;;;9.70;99.90;;;;;;5014239;28;20206;-72
2021/01/22 13:29:38;;;;;;;2.17;0.60;;;9.60;99.90;;;;;;5013720;28;20209;-68
2021/01/22 13:32:05;;;;;;;1.00;0.47;;;9.70;99.90;;;;;;5013966;28;20221;-71
2021/01/22 13:34:31;;;;;;;1.90;0.50;;;9.70;99.90;;;;;;5007555;28;20207;-69
2021/01/22 13:36:57;;;;;;;2.77;0.70;;;9.80;99.90;;;;;;4993928;28;20272;-74
2021/01/22 13:39:24;;;;;;;2.90;0.90;;;9.80;99.90;;;;;;4994442;28;20229;-74
2021/01/22 13:41:50;;;;;;;0.70;0.30;;;9.70;99.90;;;;;;4994491;28;20221;-70
2021/01/22 13:44:17;;;;;;;0.70;0.37;;;9.60;99.90;;;;;;4993863;28;20266;-70
2021/01/22 13:46:44;;;;;;;3.37;1.00;;;9.60;99.90;;;;;;4994269;28;20217;-74
2021/01/22 13:49:10;;;;;;;1.13;0.40;;;9.60;99.90;;;;;;4993968;28;20203;-70
2021/01/22 13:51:36;;;;;;;0.80;0.40;;;9.50;99.90;;;;;;4994266;28;20206;-69
2021/01/22 13:54:03;;;;;;;4.33;0.83;;;9.50;99.90;;;;;;4994340;28;20237;-74
2021/01/22 13:56:29;;;;;;;2.20;0.93;;;9.50;99.90;;;;;;4993977;28;20225;-74
2021/01/22 13:58:56;;;;;;;1.43;0.70;;;9.60;99.90;;;;;;5005972;28;20213;-70
2021/01/22 14:01:22;;;;;;;1.63;0.57;;;9.70;99.90;;;;;;5001692;28;20206;-70
2021/01/22 14:03:49;;;;;;;2.63;0.70;;;9.60;99.90;;;;;;4993812;28;20242;-74
2021/01/22 14:06:15;;;;;;;4.17;0.40;;;9.50;99.90;;;;;;4995603;28;20219;-73
2021/01/22 14:08:41;;;;;;;0.90;0.53;;;9.60;99.90;;;;;;5002588;28;20198;-69
2021/01/22 14:11:08;;;;;;;1.93;0.80;;;9.70;99.90;;;;;;4993920;28;20217;-70
2021/01/22 14:13:34;;;;;;;1.43;0.60;;;9.80;99.90;;;;;;4993366;28;20258;-73
2021/01/22 14:16:00;;;;;;;1.83;0.50;;;9.60;99.90;;;;;;4993672;28;20214;-70
2021/01/22 14:18:26;;;;;;;1.70;1.03;;;9.50;99.90;;;;;;4993600;28;20203;-69
2021/01/22 14:20:53;;;;;;;1.63;0.50;;;9.50;99.90;;;;;;4993961;28;20210;-70
2021/01/22 14:23:20;;;;;;;3.00;0.60;;;9.50;99.90;;;;;;4993555;28;20292;-74
2021/01/22 14:25:46;;;;;;;0.73;0.43;;;9.30;99.90;;;;;;4993732;28;20202;-69
2021/01/22 14:28:12;;;;;;;1.07;0.53;;;9.30;99.90;;;;;;4993402;28;20214;-74
2021/01/22 14:30:38;;;;;;;1.83;0.40;;;9.10;99.90;;;;;;4995901;28;20203;-70
2021/01/22 14:33:04;;;;;;;3.23;0.57;;;9.10;99.90;;;;;;4993768;28;20242;-69
2021/01/22 14:35:31;;;;;;;4.40;0.40;;;9.00;99.90;;;;;;4993893;28;20229;-74
2021/01/22 14:37:58;;;;;;;4.50;1.17;;;9.00;99.90;;;;;;4994013;28;20206;-70
2021/01/22 14:40:24;;;;;;;1.50;0.40;;;9.00;99.90;;;;;;4993729;28;20214;-70
2021/01/22 14:42:51;;;;;;;3.97;0.50;;;9.10;99.90;;;;;;4993440;28;20223;-74
2021/01/22 14:45:18;;;;;;;1.43;0.53;;;9.10;99.90;;;;;;4993542;28;20742;-70
2021/01/22 14:47:44;;;;;;;0.63;0.33;;;9.10;99.90;;;;;;4993690;28;20668;-70
2021/01/22 14:50:11;;;;;;;1.67;0.50;;;9.20;99.90;;;;;;4992828;28;20538;-70
2021/01/22 14:52:38;;;;;;;6.43;0.50;;;9.10;99.90;;;;;;4994234;28;20234;-74
2021/01/22 14:55:07;;;;;;;2.10;0.70;;;9.10;99.90;;;;;;4993711;28;20207;-70
2021/01/22 14:57:33;;;;;;;1.07;0.50;;;9.10;99.90;;;;;;4993505;28;20221;-70
2021/01/22 15:00:00;;;;;;;3.90;0.80;;;9.10;99.90;;;;;;4993598;28;20805;-69
2021/01/22 15:02:26;;;;;;;2.93;0.50;;;9.00;99.90;;;;;;4993695;28;20226;-73
2021/01/22 15:04:52;;;;;;;0.90;0.57;;;8.90;99.90;;;;;;4993840;28;20238;-70
2021/01/22 15:07:18;;;;;;;1.53;0.40;;;8.90;99.90;;;;;;4993481;28;20210;-69
2021/01/22 15:09:45;;;;;;;3.60;0.90;;;8.80;99.90;;;;;;4993211;28;20215;-69
2021/01/22 15:12:12;;;;;;;1.37;0.47;;;8.80;99.90;;;;;;4993371;28;20569;-73
2021/01/22 15:14:38;;;;;;;1.30;0.40;;;8.70;99.90;;;;;;4993348;28;20207;-70
2021/01/22 15:17:04;;;;;;;1.77;0.50;;;8.60;99.90;;;;;;4993627;28;20210;-74
2021/01/22 15:19:31;;;;;;;1.20;0.37;;;8.60;99.90;;;;;;4993588;28;20252;-69
2021/01/22 15:21:57;;;;;;;1.27;0.40;;;8.50;99.90;;;;;;4993509;28;20244;-70
2021/01/22 15:24:24;;;;;;;3.13;0.50;;;8.40;99.90;;;;;;4993000;28;20717;-70
2021/01/22 15:26:50;;;;;;;3.03;0.40;;;8.40;99.90;;;;;;4993298;28;20211;-70
2021/01/22 15:29:17;;;;;;;2.53;0.47;;;8.30;99.90;;;;;;4993091;28;20206;-69
2021/01/22 15:31:44;;;;;;;3.87;0.80;;;8.20;99.90;;;;;;4993319;28;20209;-69
2021/01/22 15:34:10;;;;;;;0.40;0.20;;;8.10;99.90;;;;;;4993258;28;20226;-69
2021/01/22 15:36:37;;;;;;;1.97;0.30;;;8.10;99.90;;;;;;4993551;28;20211;-69
2021/01/22 15:39:04;;;;;;;0.87;0.37;;;8.00;99.90;;;;;;4993364;28;20673;-69
2021/01/22 15:41:30;;;;;;;2.60;0.33;;;8.00;99.90;;;;;;4993079;28;20213;-69
2021/01/22 15:43:57;;;;;;;0.73;0.30;;;7.90;99.90;;;;;;4992677;28;20243;-69
2021/01/22 15:46:24;;;;;;;1.77;0.50;;;7.90;99.90;;;;;;4993050;28;20238;-69
2021/01/22 15:48:50;;;;;;;0.40;0.30;;;8.00;99.90;;;;;;4992938;28;20213;-70
2021/01/22 15:51:16;;;;;;;0.93;0.30;;;7.90;99.90;;;;;;4993110;28;20573;-70
2021/01/22 15:53:43;;;;;;;3.30;0.33;;;7.70;99.90;;;;;;4992906;28;20234;-69
2021/01/22 15:56:09;;;;;;;2.37;0.57;;;7.70;99.90;;;;;;4992038;28;20218;-72
2021/01/22 15:58:35;;;;;;;1.30;0.30;;;7.70;99.90;;;;;;5012029;28;20256;-72
2021/01/22 16:01:02;;;;;;;2.13;0.33;;;7.60;99.90;;;;;;5013901;28;20205;-72
2021/01/22 16:03:29;;;;;;;1.73;0.40;;;7.40;99.90;;;;;;5015444;28;20631;-72
2021/01/22 16:05:56;;;;;;;0.87;0.40;;;7.40;99.90;;;;;;5024031;28;20205;-73
2021/01/22 16:08:22;;;;;;;1.43;0.30;;;7.40;99.90;;;;;;5015765;28;20344;-73
2021/01/22 16:10:49;;;;;;;1.20;0.40;;;7.30;99.90;;;;;;5013941;28;20212;-74
2021/01/22 16:13:15;;;;;;;0.77;0.50;;;7.30;99.90;;;;;;5013257;28;20588;-74
2021/01/22 16:15:41;;;;;;;1.33;0.30;;;7.20;99.90;;;;;;4999165;28;20214;-73
2021/01/22 16:18:08;;;;;;;2.10;0.63;;;7.20;99.90;;;;;;5014521;28;20206;-73
2021/01/22 16:20:35;;;;;;;1.53;0.63;;;7.10;99.90;;;;;;5015259;28;20213;-74
2021/01/22 16:23:02;;;;;;;3.20;0.50;;;7.10;99.90;;;;;;5015078;28;20237;-74
2021/01/22 16:25:28;;;;;;;2.13;0.50;;;7.00;99.90;;;;;;5014370;28;20563;-74
2021/01/22 16:27:54;;;;;;;6.63;0.70;;;6.90;99.90;;;;;;5014520;28;20560;-73
2021/01/22 16:30:22;;;;;;;2.13;0.60;;;6.90;99.90;;;;;;5014667;28;20209;-72
2021/01/22 16:32:48;;;;;;;1.47;0.50;;;6.80;99.90;;;;;;5001046;28;20238;-73
2021/01/22 16:35:14;;;;;;;1.80;0.60;;;6.70;99.90;;;;;;5015992;28;20212;-72
2021/01/22 16:37:41;;;;;;;1.73;0.57;;;6.60;99.90;;;;;;5018373;28;20206;-72
2021/01/22 16:40:08;;;;;;;1.10;0.73;;;6.50;99.90;;;;;;5014810;28;20214;-73
2021/01/22 16:42:35;;;;;;;4.20;0.90;;;6.40;99.90;;;;;;5014437;28;20260;-73
2021/01/22 16:45:01;;;;;;;5.23;1.43;;;6.30;99.90;;;;;;5014490;28;20708;-73
2021/01/22 16:47:28;;;;;;;3.83;0.80;;;6.40;99.90;;;;;;5014364;28;20209;-72
2021/01/22 16:49:54;;;;;;;2.60;1.20;;;6.30;99.90;;;;;;5014604;28;20205;-71
2021/01/22 16:52:20;;;;;;;3.27;0.80;;;6.10;99.90;;;;;;5014377;28;20586;-71
2021/01/22 16:54:47;;;;;;;1.53;0.70;;;6.00;99.90;;;;;;5014040;28;20213;-70
2021/01/22 16:57:14;;;;;;;5.20;0.80;;;5.90;99.90;;;;;;5013896;28;20224;-70
2021/01/22 16:59:41;;;;;;;2.03;0.60;;;5.70;99.90;;;;;;5010918;28;20525;-69
2021/01/22 17:02:08;;;;;;;7.60;0.80;;;5.60;99.90;;;;;;5029590;28;20209;-71
2021/01/22 17:04:35;;;;;;;4.17;1.17;;;5.40;99.90;;;;;;5024222;28;20240;-79
2021/01/22 17:07:02;;;;;;;5.07;0.90;;;5.40;99.90;;;;;;5012667;28;20206;-73
2021/01/22 17:09:28;;;;;;;3.43;1.20;;;5.30;99.90;;;;;;5013073;28;20209;-73
2021/01/22 17:11:55;;;;;;;2.33;1.10;;;5.40;99.90;;;;;;5012004;28;20206;-72
2021/01/22 17:14:22;;;;;;;5.13;1.90;;;5.20;99.90;;;;;;5012203;28;20225;-73
2021/01/22 17:16:48;;;;;;;5.67;1.70;;;5.20;99.90;;;;;;5012287;28;20205;-73
2021/01/22 17:19:14;;;;;;;3.07;1.23;;;5.00;99.90;;;;;;5011908;28;20221;-74
2021/01/22 17:21:41;;;;;;;4.03;1.40;;;5.00;99.90;;;;;;5012575;28;20221;-74
2021/01/22 17:24:08;;;;;;;2.20;1.30;;;5.00;99.90;;;;;;5011809;28;20229;-72
2021/01/22 17:26:35;;;;;;;5.63;1.73;;;4.90;99.90;;;;;;5006676;28;20217;-74
2021/01/22 17:29:03;;;;;;;9.80;1.67;;;4.80;99.90;;;;;;5003601;28;20220;-77
2021/01/22 17:31:29;;;;;;;4.60;1.23;;;4.80;99.90;;;;;;5012305;28;20209;-74
2021/01/22 17:33:55;;;;;;;3.07;1.47;;;4.70;99.90;;;;;;5012417;28;20237;-74
2021/01/22 17:36:22;;;;;;;2.67;1.50;;;4.70;99.90;;;;;;5011956;28;20221;-74
2021/01/22 17:38:48;;;;;;;4.13;1.13;;;4.70;99.90;;;;;;5012290;28;20218;-70
2021/01/22 17:41:14;;;;;;;3.83;1.43;;;4.70;99.90;;;;;;5013654;28;20209;-71
2021/01/22 17:43:41;;;;;;;3.00;1.50;;;4.60;99.90;;;;;;5012921;28;20684;-74
2021/01/22 17:46:08;;;;;;;3.30;1.73;;;4.50;99.90;;;;;;5013197;28;20205;-72
2021/01/22 17:48:34;;;;;;;6.27;1.57;;;4.40;99.90;;;;;;5013155;28;20217;-74
2021/01/22 17:51:00;;;;;;;5.40;1.90;;;4.40;99.90;;;;;;5013446;28;20649;-72
2021/01/22 17:53:27;;;;;;;5.83;1.90;;;4.40;99.90;;;;;;5012931;28;20696;-71
2021/01/22 17:55:53;;;;;;;4.37;1.67;;;4.30;99.90;;;;;;5012511;28;20231;-71
2021/01/22 17:58:19;;;;;;;4.30;2.07;;;4.30;99.90;;;;;;5026551;28;20209;-70
2021/01/22 18:00:45;;;;;;;8.33;2.17;;;4.20;99.90;;;;;;5025491;28;20205;-70
2021/01/22 18:03:12;;;;;;;5.30;2.23;;;4.20;99.90;;;;;;5012274;28;20283;-73
2021/01/22 18:05:39;;;;;;;7.60;2.00;;;4.10;99.90;;;;;;5012522;28;20256;-70
2021/01/22 18:08:07;;;;;;;9.50;1.80;;;4.10;99.90;;;;;;5012630;28;20209;-73
2021/01/22 18:10:33;;;;;;;4.03;1.77;;;4.00;99.90;;;;;;5004977;28;20201;-73
2021/01/22 18:12:59;;;;;;;12.50;1.83;;;4.00;99.90;;;;;;5001705;28;20226;-72
2021/01/22 18:15:26;;;;;;;6.33;2.20;;;3.90;99.90;;;;;;5005711;28;20201;-71
2021/01/22 18:17:52;;;;;;;4.83;2.10;;;3.90;99.90;;;;;;5006934;28;20205;-71
2021/01/22 18:20:19;;;;;;;3.30;1.73;;;3.90;99.90;;;;;;5012564;28;20550;-69
2021/01/22 18:22:45;;;;;;;3.90;2.20;;;3.90;99.90;;;;;;5012690;28;20252;-74
2021/01/22 18:25:12;;;;;;;4.90;1.80;;;3.90;99.90;;;;;;5012673;28;20240;-71
2021/01/22 18:27:38;;;;;;;5.77;2.03;;;3.90;99.90;;;;;;5012252;28;20206;-70
2021/01/22 18:30:06;;;;;;;12.63;2.30;;;3.90;99.90;;;;;;5006586;28;20209;-71
2021/01/22 18:32:33;;;;;;;7.90;2.37;;;3.80;99.90;;;;;;5012456;28;20226;-71
2021/01/22 18:34:59;;;;;;;5.00;2.00;;;3.80;99.90;;;;;;5012614;28;20205;-72
2021/01/22 18:37:26;;;;;;;4.70;2.10;;;3.80;99.90;;;;;;5012736;28;20210;-71
2021/01/22 18:39:52;;;;;;;4.30;2.03;;;3.80;99.90;;;;;;5012256;28;20661;-71
2021/01/22 18:42:19;;;;;;;4.60;1.83;;;3.80;99.90;;;;;;5012803;28;20584;-76
2021/01/22 18:44:45;;;;;;;5.00;2.30;;;3.70;99.90;;;;;;5012659;28;20237;-70
2021/01/22 18:47:11;;;;;;;4.17;1.80;;;3.70;99.90;;;;;;5012555;28;20206;-71
2021/01/22 18:49:38;;;;;;;6.60;1.93;;;3.70;99.90;;;;;;5006809;28;20343;-72
2021/01/22 18:52:04;;;;;;;4.57;1.90;;;3.70;99.90;;;;;;5012324;28;20577;-71
2021/01/22 18:54:31;;;;;;;4.60;1.90;;;3.70;99.90;;;;;;5012582;28;20700;-71
2021/01/22 18:56:57;;;;;;;8.87;2.10;;;3.60;99.90;;;;;;5011836;28;20695;-71
2021/01/22 18:59:23;;;;;;;5.77;2.00;;;3.50;99.90;;;;;;5011824;28;20220;-71
2021/01/22 19:01:50;;;;;;;9.33;2.30;;;3.40;99.90;;;;;;5012782;28;20209;-71
2021/01/22 19:04:16;;;;;;;7.60;2.40;;;3.50;99.90;;;;;;5012519;28;20707;-75
2021/01/22 19:06:42;;;;;;;2.43;1.40;;;3.60;99.90;;;;;;5012967;28;20209;-76
2021/01/22 19:09:08;;;;;;;8.07;2.33;;;3.60;99.90;;;;;;5012514;28;20202;-73
2021/01/22 19:11:36;;;;;;;7.50;2.60;;;3.70;99.90;;;;;;5012674;28;20206;-71
2021/01/22 19:14:02;;;;;;;2.83;1.80;;;3.70;99.90;;;;;;5012215;28;20233;-73
2021/01/22 19:16:28;;;;;;;6.73;2.40;;;3.70;99.90;;;;;;5012665;28;20529;-72
2021/01/22 19:18:55;;;;;;;4.67;2.27;;;3.70;99.90;;;;;;5012576;28;20664;-72
2021/01/22 19:21:21;;;;;;;6.77;2.63;;;3.70;99.90;;;;;;5012647;28;20205;-71
2021/01/22 19:23:47;;;;;;;7.07;2.93;;;3.70;99.90;;;;;;5001872;28;20234;-77
2021/01/22 19:26:13;;;;;;;10.27;2.10;;;3.70;99.90;;;;;;5003465;28;20293;-76
2021/01/22 19:28:40;;;;;;;13.30;3.37;;;3.70;99.90;;;;;;5009752;28;20236;-71
2021/01/22 19:31:07;;;;;;;8.73;3.30;;;3.70;99.90;;;;;;5005866;28;20213;-75
2021/01/22 19:33:34;;;;;;;4.13;2.50;;;3.70;99.90;;;;;;5002367;28;20230;-71
2021/01/22 19:36:00;;;;;;;8.33;2.87;;;3.60;99.90;;;;;;5006993;28;20281;-72
2021/01/22 19:38:27;;;;;;;12.20;3.27;;;3.60;99.90;;;;;;5007681;28;20205;-80
2021/01/22 19:40:53;;;;;;;5.07;2.67;;;3.60;99.90;;;;;;5015618;28;20201;-71
2021/01/22 19:43:19;;;;;;;6.93;2.60;;;3.60;99.90;;;;;;5013940;28;20221;-70
2021/01/22 19:45:47;;;;;;;5.50;2.17;;;3.80;99.90;;;;;;4995771;28;20209;-72
2021/01/22 19:48:13;;;;;;;6.03;2.33;;;3.70;99.90;;;;;;5004901;28;20206;-80
2021/01/22 19:50:39;;;;;;;8.47;2.80;;;3.80;99.90;;;;;;5008249;28;20553;-73
2021/01/22 19:53:05;;;;;;;5.57;2.50;;;3.80;99.90;;;;;;5014093;28;20217;-74
2021/01/22 19:55:32;;;;;;;6.90;2.80;;;3.70;99.90;;;;;;5027952;28;20279;-81
2021/01/22 19:57:58;;;;;;;7.20;2.43;;;3.70;99.90;;;;;;5033450;28;20275;-70
2021/01/22 20:00:24;;;;;;;7.93;3.00;;;3.70;99.90;;;;;;5035006;28;20201;-68
2021/01/22 20:02:51;;;;;;;7.97;2.83;;;3.70;99.90;;;;;;5015336;28;20252;-73
2021/01/22 20:05:17;;;;;;;7.17;3.23;;;3.70;99.90;;;;;;5015008;28;20225;-73
2021/01/22 20:07:44;;;;;;;5.50;2.60;;;3.70;99.90;;;;;;5012729;28;20201;-68
2021/01/22 20:10:10;;;;;;;6.60;3.20;;;3.70;99.90;;;;;;5015294;28;20197;-72
2021/01/22 20:12:37;;;;;;;5.70;2.53;;;3.70;99.90;;;;;;5014990;28;20225;-72
2021/01/22 20:15:04;;;;;;;5.17;2.80;;;3.70;99.90;;;;;;5016163;28;20209;-68
2021/01/22 20:17:31;;;;;;;5.40;2.60;;;3.70;99.90;;;;;;5015837;28;20201;-73
2021/01/22 20:19:59;;;;;;;5.63;3.10;;;3.60;99.90;;;;;;5015544;28;20556;-70
2021/01/22 20:22:26;;;;;;;6.70;3.37;;;3.70;99.90;;;;;;5015550;28;20202;-69
2021/01/22 20:24:52;;;;;;;7.90;3.00;;;3.70;99.90;;;;;;5015361;28;20229;-72
2021/01/22 20:27:18;;;;;;;8.47;3.10;;;3.70;99.90;;;;;;5014996;28;20300;-71
2021/01/22 20:29:45;;;;;;;9.30;2.80;;;3.80;99.90;;;;;;5015555;28;20209;-69
2021/01/22 20:32:11;;;;;;;7.70;2.80;;;3.80;99.90;;;;;;5008412;28;20198;-73
2021/01/22 20:34:37;;;;;;;5.47;2.80;;;3.80;99.90;;;;;;5013754;28;20198;-71
2021/01/22 20:37:05;;;;;;;10.97;2.97;;;3.70;99.90;;;;;;5015465;28;20209;-73
2021/01/22 20:39:31;;;;;;;7.87;3.23;;;3.70;99.90;;;;;;5015212;28;20216;-69
2021/01/22 20:41:57;;;;;;;8.53;2.97;;;3.70;99.90;;;;;;5015661;28;20263;-69
2021/01/22 20:44:23;;;;;;;4.00;2.27;;;3.70;99.90;;;;;;5015393;28;20315;-69
2021/01/22 20:46:50;;;;;;;5.70;2.93;;;3.70;99.90;;;;;;5014344;28;20209;-73
2021/01/22 20:49:16;;;;;;;5.90;2.50;;;3.70;99.90;;;;;;5015189;28;20263;-69
2021/01/22 20:51:42;;;;;;;4.97;2.80;;;3.70;99.90;;;;;;5015092;28;20260;-74
2021/01/22 20:54:10;;;;;;;9.70;2.70;;;3.60;99.90;;;;;;5015382;28;20303;-68
2021/01/22 20:56:36;;;;;;;8.80;3.50;;;3.50;99.90;;;;;;5014979;28;20236;-69
2021/01/22 20:59:02;;;;;;;7.80;3.53;;;3.60;99.90;;;;;;5015373;28;20209;-70
2021/01/22 21:01:29;;;;;;;11.30;4.00;;;3.70;99.90;;;;;;5014955;28;20214;-69
2021/01/22 21:03:55;;;;;;;8.50;3.47;;;3.80;99.90;;;;;;5011284;28;20619;-69
2021/01/22 21:06:21;;;;;;;7.03;3.63;;;3.80;99.90;;;;;;5014570;28;20220;-69
2021/01/22 21:08:47;;;;;;;5.30;3.23;;;3.70;99.90;;;;;;5014716;28;20202;-74
2021/01/22 21:11:14;;;;;;;9.10;3.60;;;3.70;99.90;;;;;;5014759;28;20672;-69
2021/01/22 21:13:41;;;;;;;8.43;3.60;;;3.70;99.90;;;;;;5014574;28;20299;-74
2021/01/22 21:16:07;;;;;;;7.70;3.50;;;3.50;99.90;;;;;;5014676;28;20202;-71
2021/01/22 21:18:34;;;;;;;10.77;3.47;;;3.60;99.90;;;;;;5014766;28;20206;-69
2021/01/22 21:21:00;;;;;;;8.50;3.30;;;3.70;99.90;;;;;;5014639;28;20253;-73
2021/01/22 21:23:26;;;;;;;8.67;4.03;;;3.70;99.90;;;;;;5014382;28;20225;-73
2021/01/22 21:25:53;;;;;;;9.70;3.47;;;3.80;99.90;;;;;;5014742;28;20209;-69
2021/01/22 21:28:21;;;;;;;6.97;3.20;;;3.80;99.90;;;;;;5014280;28;20201;-69
2021/01/22 21:30:48;;;;;;;7.27;3.70;;;3.70;99.90;;;;;;5014261;28;20206;-70
2021/01/22 21:33:14;;;;;;;7.97;3.00;;;3.70;99.90;;;;;;5013862;28;20229;-71
2021/01/22 21:35:41;;;;;;;7.00;3.13;;;3.70;99.90;;;;;;5013949;28;20213;-71
2021/01/22 21:38:07;;;;;;;7.87;3.10;;;3.70;99.90;;;;;;5013895;28;20209;-72
2021/01/22 21:40:34;;;;;;;5.93;2.27;;;3.70;99.90;;;;;;5014329;28;20210;-70
2021/01/22 21:43:00;;;;;;;4.30;2.63;;;3.80;99.90;;;;;;5013880;28;20774;-68
2021/01/22 21:45:28;;;;;;;5.00;2.60;;;3.90;99.90;;;;;;5013976;28;20712;-68
2021/01/22 21:47:54;;;;;;;5.90;2.70;;;4.00;99.90;;;;;;5013920;28;20233;-72
2021/01/22 21:50:21;;;;;;;5.60;2.80;;;4.00;99.90;;;;;;5013714;28;20568;-71